TFM - Tactical Decision Aid (Experimental) INFO Settings

ID: Runway Winds: METAR Board: Map:

Katl - Atlanta-Hartsfield Jackson Intl

Updated at: 2208 UTC 21 Sep 2014
Latest TAF at: 2148 UTC 21 Sep 2014

TAF Board

Time2152Z21/23Z22/00Z22/01Z22/02Z22/03Z22/04Z22/05Z22/06Z22/07Z22/08Z22/09Z22/10Z22/11Z
TypeOBSPRVLPRVLPRVLPRVLPRVLPRVLPRVLPRVLPRVLPRVLPRVLPRVLPRVL
VIS10>6>6>6>6>6>6>6>6>6>6>6>6>6
CIG----------------------------
CoverSCTFEWSCTSCTSCTSCTSCTSCTSCTSCTSCTSCTSCTSCT
FltCat--VFRVFRVFRVFRVFRVFRVFRVFRVFRVFRVFRVFRVFR
WX----------------------------
WDir290290270270270270270270310310310310320320
WSpd810666666555577
WGst----------------------------
TAF
KATL 212148Z 2122/2224 29010KT P6SM FEW060
  FM220000 27006KT P6SM SCT100
  FM220600 31005KT P6SM FEW025 SCT050
  FM221000 32007KT P6SM SCT150
  FM221600 34010G18KT P6SM FEW250


METAR
KATL 212152Z 29008KT 10SM FEW060 SCT200 SCT250 30/15 A2995 RMK AO2 SLP133 T03000150
KATL 212052Z 28009KT 10SM FEW060 SCT250 31/15 A2996 RMK AO2 SLP134 T03060150 56021

TAF/METAR Board Legend

Hazard VFR MVFR IFR LIFR
Visibility (sm) >5 3≤X≤5 1≤X<3 <1
Ceiling (100 ft) >30 10≤X≤30 5≤X<10 <5
Wind Speed (kt) <10 10≤X<20 20≤X<30 ≥30
Wind Gust (kt) <15 15≤X<25 25≤X<35 ≥35
Weather No Wx Reported VCTS,-TS,-FZRA TS,FZRA +TS,+FZRA




Page loaded:  22:08 UTC  |   03:08 PM Pacific  |   04:08 PM Mountain  |   05:08 PM Central  |   06:08 PM Eastern

 

ADVISORIES

FORECASTS

FORECASTS

OBSERVATIONS

USER TOOLS

ABOUT US